Time;durP1;ratioP1;P1;durP2;ratioP2;P2;SDS_P1;SDS_P2;PMS_P1;PMS_P2;Temp;Humidity;BMP_temperature;BMP_pressure;BME280_temperature;BME280_humidity;BME280_pressure;Samples;Min_cycle;Max_cycle;Signal;HPM_P1;HPM_P2
2022/03/08 00:01:37;;;;;;;;;15.25;13.50;;;;;20.17;31.93;101392.75;5064903;27;51255;-49
2022/03/08 00:04:03;;;;;;;;;14.75;13.75;;;;;20.14;31.82;101382.19;5062383;28;51962;-49
2022/03/08 00:06:29;;;;;;;;;10.25;10.25;;;;;20.14;31.87;101387.69;5064440;28;51455;-50
2022/03/08 00:08:55;;;;;;;;;10.75;10.75;;;;;20.12;31.33;101380.69;5055929;28;51021;-49
2022/03/08 00:11:20;;;;;;;;;15.00;11.50;;;;;20.11;31.95;101373.47;5057317;28;51009;-50
2022/03/08 00:13:46;;;;;;;;;12.75;12.25;;;;;20.09;31.51;101376.44;5061240;28;51884;-50
2022/03/08 00:16:12;;;;;;;;;12.00;12.00;;;;;20.08;31.81;101374.75;5062960;28;51287;-47
2022/03/08 00:18:38;;;;;;;;;17.75;14.75;;;;;20.07;31.90;101372.19;5065530;28;51370;-49
2022/03/08 00:21:05;;;;;;;;;12.00;11.75;;;;;20.05;31.75;101369.66;5059329;28;51104;-52
2022/03/08 00:23:31;;;;;;;;;16.25;14.50;;;;;20.02;31.61;101372.00;5059529;28;51469;-50
2022/03/08 00:25:59;;;;;;;;;12.00;11.75;;;;;20.01;31.51;101368.41;5058256;28;51550;-51
2022/03/08 00:28:25;;;;;;;;;13.50;13.50;;;;;19.98;31.59;101374.28;5058413;28;51192;-51
2022/03/08 00:30:50;;;;;;;;;12.75;11.25;;;;;19.98;31.80;101367.94;5064842;27;51259;-50
2022/03/08 00:33:16;;;;;;;;;14.50;12.50;;;;;19.97;31.44;101375.34;5065703;28;52879;-50
2022/03/08 00:35:41;;;;;;;;;9.50;8.50;;;;;19.96;31.67;101381.06;5061057;28;51114;-49
2022/03/08 00:38:06;;;;;;;;;14.50;13.00;;;;;19.94;31.36;101374.91;5057694;28;51260;-46
2022/03/08 00:40:32;;;;;;;;;15.00;15.00;;;;;19.93;31.34;101370.47;5057434;28;51328;-50
2022/03/08 00:42:57;;;;;;;;;12.25;12.25;;;;;19.91;31.23;101370.69;5058386;28;52089;-45
2022/03/08 00:45:23;;;;;;;;;13.00;11.00;;;;;19.89;31.37;101375.50;5059854;28;51045;-50
2022/03/08 00:47:48;;;;;;;;;11.75;10.50;;;;;19.87;31.50;101377.63;5066498;28;51056;-49
2022/03/08 00:50:18;;;;;;;;;13.50;12.50;;;;;19.86;31.41;101378.69;5055987;28;51084;-50
2022/03/08 00:52:44;;;;;;;;;12.50;11.50;;;;;19.84;31.51;101381.66;5060739;28;51225;-49
2022/03/08 00:55:10;;;;;;;;;14.75;13.75;;;;;19.84;31.36;101378.06;5062486;28;51492;-46
2022/03/08 00:57:37;;;;;;;;;13.25;12.25;;;;;19.81;31.40;101371.06;5055213;28;50923;-48
2022/03/08 01:00:08;;;;;;;;;16.75;13.75;;;;;19.79;31.09;101375.91;5067313;28;50925;-51
2022/03/08 01:02:33;;;;;;;;;14.75;12.75;;;;;19.79;31.36;101375.06;5061165;28;51062;-47
2022/03/08 01:04:59;;;;;;;;;15.00;12.50;;;;;19.77;31.60;101372.50;5058240;28;51125;-47
2022/03/08 01:07:24;;;;;;;;;12.75;11.25;;;;;19.78;31.52;101359.63;5057695;28;51308;-47
2022/03/08 01:09:49;;;;;;;;;17.50;12.00;;;;;19.78;31.64;101374.19;5057513;28;51315;-48
2022/03/08 01:12:15;;;;;;;;;15.00;13.75;;;;;19.76;31.52;101362.56;5064775;27;51826;-47
2022/03/08 01:14:40;;;;;;;;;13.50;11.25;;;;;19.78;31.86;101354.13;5062522;27;50892;-47
2022/03/08 01:17:06;;;;;;;;;14.75;14.75;;;;;19.76;31.74;101357.06;5057216;28;51029;-49
2022/03/08 01:19:31;;;;;;;;;13.00;13.00;;;;;19.75;31.38;101365.53;5070775;27;51291;-46
2022/03/08 01:21:57;;;;;;;;;15.50;15.25;;;;;19.73;31.84;101354.75;5064836;27;52031;-49
2022/03/08 01:24:22;;;;;;;;;13.50;10.00;;;;;19.73;31.37;101359.41;5056139;28;50998;-49
2022/03/08 01:26:47;;;;;;;;;14.50;12.75;;;;;19.71;31.66;101356.00;5058777;27;52049;-48
2022/03/08 01:29:13;;;;;;;;;14.00;12.25;;;;;19.69;31.63;101358.94;5064983;27;51088;-46
2022/03/08 01:31:38;;;;;;;;;15.50;12.25;;;;;19.67;31.65;101347.31;5059295;28;52039;-50
2022/03/08 01:34:04;;;;;;;;;17.00;14.00;;;;;19.67;31.25;101357.44;5054784;28;51241;-46
2022/03/08 01:36:30;;;;;;;;;14.25;13.00;;;;;19.65;31.45;101351.31;5066415;28;51211;-48
2022/03/08 01:38:55;;;;;;;;;16.75;13.50;;;;;19.62;31.38;101347.09;5066897;27;51559;-46
2022/03/08 01:41:21;;;;;;;;;15.25;14.00;;;;;19.63;31.57;101358.94;5058611;28;51776;-46
2022/03/08 01:43:47;;;;;;;;;16.75;13.00;;;;;19.60;31.66;101350.03;5059878;28;51830;-48
2022/03/08 01:46:16;;;;;;;;;13.50;13.00;;;;;19.59;31.50;101351.09;5069197;28;51160;-45
2022/03/08 01:48:42;;;;;;;;;15.50;14.50;;;;;19.58;31.35;101352.13;5060074;28;51012;-49
2022/03/08 01:51:08;;;;;;;;;16.75;14.75;;;;;19.58;31.35;101351.28;5063277;28;51752;-50
2022/03/08 01:53:35;;;;;;;;;15.00;14.00;;;;;19.56;31.48;101339.66;5071273;28;51028;-47
2022/03/08 01:56:01;;;;;;;;;13.75;12.50;;;;;19.54;31.30;101344.47;5066956;27;51568;-49
2022/03/08 01:58:26;;;;;;;;;15.50;12.25;;;;;19.53;31.43;101343.63;5060032;28;51851;-50
2022/03/08 02:00:51;;;;;;;;;12.50;11.25;;;;;19.52;31.17;101341.09;5066039;27;52093;-50
2022/03/08 02:03:17;;;;;;;;;14.75;13.00;;;;;19.51;31.28;101334.75;5068891;28;51169;-52
2022/03/08 02:05:42;;;;;;;;;15.00;12.50;;;;;19.49;31.24;101336.00;5066458;28;51648;-50
2022/03/08 02:08:07;;;;;;;;;12.25;11.50;;;;;19.48;31.37;101337.03;5063829;28;51034;-48
2022/03/08 02:10:33;;;;;;;;;18.00;14.75;;;;;19.46;31.30;101336.38;5066313;28;51657;-47
2022/03/08 02:12:58;;;;;;;;;10.25;10.25;;;;;19.45;31.45;101329.19;5060298;27;51180;-51
2022/03/08 02:15:27;;;;;;;;;13.50;10.00;;;;;19.44;30.96;101331.09;5069746;28;51281;-48
2022/03/08 02:17:54;;;;;;;;;16.75;14.50;;;;;19.43;31.36;101328.56;5066859;28;50886;-52
2022/03/08 02:20:20;;;;;;;;;18.00;13.75;;;;;19.43;31.35;101325.81;5064422;28;51774;-47
2022/03/08 02:22:47;;;;;;;;;14.00;12.50;;;;;19.41;31.29;101317.78;5064783;27;51153;-51
2022/03/08 02:25:14;;;;;;;;;10.00;9.50;;;;;19.40;31.37;101312.50;5066776;28;51156;-52
2022/03/08 02:27:45;;;;;;;;;13.00;13.00;;;;;19.39;31.28;101311.66;5066091;28;51172;-51
2022/03/08 02:30:13;;;;;;;;;16.25;16.25;;;;;19.38;31.14;101309.09;5064864;27;51113;-50
2022/03/08 02:32:39;;;;;;;;;11.75;11.75;;;;;19.36;31.25;101298.31;5069833;27;51055;-49
2022/03/08 02:35:10;;;;;;;;;15.25;12.75;;;;;19.36;31.24;101308.44;5064101;28;51225;-50
2022/03/08 02:37:42;;;;;;;;;17.50;15.00;;;;;19.34;31.10;101314.16;5072690;28;51275;-51
2022/03/08 02:40:13;;;;;;;;;19.50;15.75;;;;;19.34;30.97;101308.66;5075373;27;52011;-51
2022/03/08 02:42:39;;;;;;;;;16.75;13.25;;;;;19.33;31.00;101312.44;5076661;28;51093;-50
2022/03/08 02:45:06;;;;;;;;;15.50;15.25;;;;;19.31;31.10;101306.31;5070126;28;50972;-50
2022/03/08 02:47:31;;;;;;;;;15.50;12.75;;;;;19.30;31.18;101301.88;5063601;28;51555;-50
2022/03/08 02:49:57;;;;;;;;;14.75;14.00;;;;;19.29;31.24;101298.28;5059774;28;51057;-52
2022/03/08 02:52:22;;;;;;;;;15.50;14.75;;;;;19.29;30.91;101290.06;5057066;28;51035;-49
2022/03/08 02:54:47;;;;;;;;;12.00;12.00;;;;;19.27;31.08;101294.88;5058292;28;51654;-48
2022/03/08 02:57:13;;;;;;;;;16.25;14.50;;;;;19.26;31.22;101290.44;5065025;28;50889;-50
2022/03/08 02:59:38;;;;;;;;;13.75;12.75;;;;;19.26;30.95;101290.44;5068253;27;51001;-48
2022/03/08 03:02:04;;;;;;;;;13.50;13.50;;;;;19.25;30.89;101285.16;5061269;28;51119;-50
2022/03/08 03:04:29;;;;;;;;;12.00;12.00;;;;;19.24;31.09;101280.72;5058179;28;51281;-47
2022/03/08 03:06:55;;;;;;;;;16.00;14.00;;;;;19.23;30.84;101284.50;5063058;28;51240;-52
2022/03/08 03:09:20;;;;;;;;;11.50;11.50;;;;;19.22;31.16;101282.81;5064743;27;51751;-51
2022/03/08 03:11:45;;;;;;;;;14.00;13.00;;;;;19.22;30.98;101286.41;5056731;28;51145;-50
2022/03/08 03:14:11;;;;;;;;;14.00;13.25;;;;;19.19;30.91;101275.84;5067125;28;51214;-50
2022/03/08 03:16:36;;;;;;;;;12.25;11.75;;;;;19.20;31.04;101279.44;5060691;28;51392;-49
2022/03/08 03:19:03;;;;;;;;;18.00;13.50;;;;;19.18;30.97;101279.63;5076391;27;51113;-49
2022/03/08 03:21:28;;;;;;;;;14.25;12.75;;;;;19.18;30.97;101278.78;5069885;27;51344;-50
2022/03/08 03:23:54;;;;;;;;;20.00;15.75;;;;;19.17;30.92;101280.66;5074862;27;51215;-50
2022/03/08 03:26:19;;;;;;;;;14.25;11.25;;;;;19.15;30.94;101270.94;5070358;27;51000;-51
2022/03/08 03:28:44;;;;;;;;;13.75;11.75;;;;;19.15;30.92;101268.19;5078703;27;51050;-50
2022/03/08 03:31:10;;;;;;;;;12.75;12.75;;;;;19.14;31.07;101272.00;5059506;27;51156;-50
2022/03/08 03:33:35;;;;;;;;;14.00;12.75;;;;;19.13;30.86;101270.31;5069341;28;51169;-47
2022/03/08 03:36:01;;;;;;;;;13.25;11.75;;;;;19.13;30.99;101275.78;5066014;27;52383;-47
2022/03/08 03:38:26;;;;;;;;;17.75;15.75;;;;;19.11;31.19;101261.41;5071528;28;53034;-48
2022/03/08 03:40:51;;;;;;;;;13.50;10.50;;;;;19.10;30.95;101259.72;5067465;28;51165;-47
2022/03/08 03:43:17;;;;;;;;;14.50;14.00;;;;;19.08;30.73;101254.44;5076493;27;50940;-47
2022/03/08 03:45:42;;;;;;;;;13.75;13.75;;;;;19.08;31.06;101257.19;5074483;27;51223;-46
2022/03/08 03:48:07;;;;;;;;;13.00;12.00;;;;;19.07;30.94;101258.25;5062464;28;51776;-48
2022/03/08 03:50:33;;;;;;;;;16.00;13.50;;;;;19.06;31.07;101262.00;5058772;28;51059;-46
2022/03/08 03:52:58;;;;;;;;;17.00;12.75;;;;;19.07;30.94;101257.38;5064577;28;51128;-48
2022/03/08 03:55:23;;;;;;;;;14.75;13.00;;;;;19.06;31.05;101258.41;5066696;28;51049;-49
2022/03/08 03:57:49;;;;;;;;;15.00;14.50;;;;;19.05;31.21;101257.56;5059507;28;54673;-47
2022/03/08 04:00:16;;;;;;;;;13.25;13.25;;;;;19.03;30.74;101256.94;5073687;28;51053;-48
2022/03/08 04:02:43;;;;;;;;;15.00;15.00;;;;;19.04;30.82;101262.22;5068948;27;51177;-50
2022/03/08 04:05:09;;;;;;;;;14.75;12.75;;;;;19.02;31.03;101264.31;5074672;27;51120;-51
2022/03/08 04:07:35;;;;;;;;;16.25;15.00;;;;;19.01;31.27;101265.38;5065634;28;51948;-48
2022/03/08 04:10:00;;;;;;;;;15.50;13.25;;;;;19.02;30.89;101266.22;5075500;27;51081;-47
2022/03/08 04:12:26;;;;;;;;;14.75;14.25;;;;;19.00;31.07;101260.94;5074394;28;51069;-47
2022/03/08 04:14:51;;;;;;;;;13.50;13.00;;;;;18.99;30.88;101262.00;5066903;28;51160;-47
2022/03/08 04:17:17;;;;;;;;;15.25;15.25;;;;;18.99;30.63;101270.22;5070251;28;51086;-47
2022/03/08 04:19:42;;;;;;;;;16.25;13.25;;;;;18.98;31.04;101265.78;5075444;28;51178;-46
2022/03/08 04:22:08;;;;;;;;;13.00;12.75;;;;;18.97;30.83;101266.84;5070555;27;51186;-47
2022/03/08 04:24:34;;;;;;;;;15.75;15.75;;;;;18.96;30.90;101261.53;5074428;27;50961;-47
2022/03/08 04:26:59;;;;;;;;;18.00;14.75;;;;;18.95;30.91;101260.69;5064890;27;51712;-51
2022/03/08 04:29:24;;;;;;;;;8.50;8.25;;;;;18.95;30.82;101265.34;5064531;27;51083;-49
2022/03/08 04:31:50;;;;;;;;;13.75;12.50;;;;;18.95;30.99;101265.34;5062669;28;51163;-51
2022/03/08 04:34:15;;;;;;;;;15.75;12.25;;;;;18.93;30.83;101254.56;5055752;28;51107;-51
2022/03/08 04:36:41;;;;;;;;;19.25;14.25;;;;;18.93;30.96;101248.22;5058089;28;51968;-49
2022/03/08 04:39:07;;;;;;;;;18.00;14.75;;;;;18.92;30.74;101243.78;5063902;28;51149;-48
2022/03/08 04:41:32;;;;;;;;;17.25;13.25;;;;;18.90;30.88;101241.25;5055636;28;51169;-49
2022/03/08 04:43:58;;;;;;;;;13.50;13.50;;;;;18.89;30.84;101246.94;5073833;28;51433;-50
2022/03/08 04:46:24;;;;;;;;;17.00;15.50;;;;;18.89;30.81;101246.94;5068947;27;51008;-48
2022/03/08 04:48:49;;;;;;;;;18.25;16.00;;;;;18.88;30.78;101251.59;5055436;28;51286;-49
2022/03/08 04:51:15;;;;;;;;;10.00;10.00;;;;;18.88;30.93;101256.22;5069511;28;51014;-52
2022/03/08 04:53:40;;;;;;;;;15.25;13.75;;;;;18.88;30.67;101253.47;5071873;28;51012;-49
2022/03/08 04:56:06;;;;;;;;;13.00;13.00;;;;;18.87;30.88;101252.63;5070476;27;51026;-48
2022/03/08 04:58:31;;;;;;;;;14.25;14.25;;;;;18.86;30.75;101242.72;5069638;27;51148;-51
2022/03/08 05:00:56;;;;;;;;;15.50;13.75;;;;;18.86;30.93;101244.56;5071837;28;51200;-49
2022/03/08 05:03:22;;;;;;;;;15.25;13.75;;;;;18.84;30.80;101244.78;5065222;27;51386;-49
2022/03/08 05:05:47;;;;;;;;;15.00;13.50;;;;;18.85;30.81;101240.13;5072795;27;51181;-50
2022/03/08 05:08:14;;;;;;;;;14.50;13.00;;;;;18.83;30.88;101237.59;5071779;28;51233;-52
2022/03/08 05:10:39;;;;;;;;;13.25;13.25;;;;;18.83;30.79;101239.50;5077724;27;51363;-50
2022/03/08 05:13:05;;;;;;;;;12.00;10.75;;;;;18.83;30.68;101242.25;5060406;28;51112;-51
2022/03/08 05:15:30;;;;;;;;;17.00;13.75;;;;;18.82;30.89;101240.56;5058451;28;51838;-47
2022/03/08 05:17:56;;;;;;;;;13.75;12.50;;;;;18.80;30.86;101240.75;5075518;28;51131;-52
2022/03/08 05:20:21;;;;;;;;;15.75;13.50;;;;;18.79;30.90;101241.81;5076550;27;51094;-50
2022/03/08 05:22:47;;;;;;;;;11.25;11.25;;;;;18.78;30.87;101240.13;5071590;27;51279;-52
2022/03/08 05:25:12;;;;;;;;;16.75;14.00;;;;;18.77;30.75;101240.31;5062812;27;51079;-47
2022/03/08 05:27:39;;;;;;;;;17.50;17.50;;;;;18.78;30.91;101239.28;5066581;28;51227;-49
2022/03/08 05:30:05;;;;;;;;;18.75;13.75;;;;;18.76;30.64;101239.47;5060913;27;51737;-52
2022/03/08 05:32:30;;;;;;;;;15.75;13.50;;;;;18.76;30.79;101236.75;5061957;28;51410;-50
2022/03/08 05:34:56;;;;;;;;;16.25;14.25;;;;;18.75;30.67;101235.00;5061118;28;51167;-51
2022/03/08 05:37:21;;;;;;;;;15.75;14.25;;;;;18.73;30.53;101231.63;5074242;27;50973;-47
2022/03/08 05:39:47;;;;;;;;;16.25;13.25;;;;;18.72;30.91;101236.28;5058579;28;51182;-47
2022/03/08 05:42:12;;;;;;;;;13.50;13.25;;;;;18.71;30.85;101237.31;5067279;28;51357;-49
2022/03/08 05:44:38;;;;;;;;;19.75;18.00;;;;;18.70;30.74;101243.84;5074758;27;52067;-47
2022/03/08 05:47:04;;;;;;;;;16.25;15.25;;;;;18.71;30.80;101236.47;5077931;27;51102;-47
2022/03/08 05:49:30;;;;;;;;;13.75;13.75;;;;;18.70;30.79;101234.78;5077783;27;51072;-49
2022/03/08 05:51:55;;;;;;;;;12.75;12.25;;;;;18.69;30.75;101241.31;5075354;27;51282;-46
2022/03/08 05:54:20;;;;;;;;;15.75;14.75;;;;;18.68;30.83;101235.00;5060421;27;51827;-48
2022/03/08 05:56:46;;;;;;;;;14.75;13.75;;;;;18.68;30.62;101232.25;5058391;28;51033;-49
2022/03/08 05:59:11;;;;;;;;;16.75;13.00;;;;;18.66;30.57;101228.84;5058498;28;51129;-46
2022/03/08 06:01:36;;;;;;;;;17.50;15.00;;;;;18.68;30.63;101239.63;5067948;27;52412;-51
2022/03/08 06:04:02;;;;;;;;;24.75;23.25;;;;;18.66;30.17;101237.09;5075397;27;52672;-52
2022/03/08 06:06:27;;;;;;;;;35.75;28.00;;;;;18.66;29.05;101249.97;5076076;28;51072;-50
2022/03/08 06:08:53;;;;;;;;;35.25;30.00;;;;;18.64;28.79;101246.50;5067820;27;51335;-51
2022/03/08 06:11:18;;;;;;;;;36.75;32.75;;;;;18.58;28.83;101256.41;5058025;27;51229;-49
2022/03/08 06:13:44;;;;;;;;;34.75;31.50;;;;;18.55;27.82;101253.19;5072024;28;51119;-52
2022/03/08 06:16:09;;;;;;;;;39.75;33.00;;;;;18.48;27.76;101255.06;5075879;28;51044;-50
2022/03/08 06:18:34;;;;;;;;;36.25;32.25;;;;;18.44;27.40;101262.81;5077603;27;51270;-51
2022/03/08 06:21:00;;;;;;;;;38.25;34.25;;;;;18.37;27.28;101260.03;5068632;27;51195;-51
2022/03/08 06:23:25;;;;;;;;;44.00;35.50;;;;;18.31;27.22;101263.56;5060979;28;51030;-48
2022/03/08 06:25:51;;;;;;;;;37.00;33.25;;;;;18.27;26.99;101256.78;5057437;28;51140;-51
2022/03/08 06:28:16;;;;;;;;;34.25;32.50;;;;;18.22;27.09;101261.16;5073482;27;51293;-50
2022/03/08 06:30:42;;;;;;;;;35.75;31.25;;;;;18.15;26.68;101261.13;5074748;27;51177;-53
2022/03/08 06:33:07;;;;;;;;;36.00;28.50;;;;;18.09;26.84;101261.88;5060276;28;51175;-50
2022/03/08 06:35:33;;;;;;;;;48.75;36.50;;;;;18.05;26.59;101266.09;5050218;28;51012;-49
2022/03/08 06:37:59;;;;;;;;;36.50;31.50;;;;;18.00;27.08;101254.84;5074659;27;51155;-51
2022/03/08 06:40:25;;;;;;;;;36.75;32.75;;;;;17.98;27.22;101254.19;5070842;28;51211;-50
2022/03/08 06:42:50;;;;;;;;;31.50;27.75;;;;;17.97;27.23;101252.50;5064022;28;52195;-51
2022/03/08 06:45:16;;;;;;;;;34.00;29.00;;;;;18.00;27.63;101258.44;5063478;28;51364;-49
2022/03/08 06:47:41;;;;;;;;;30.00;28.00;;;;;18.04;27.88;101253.41;5063142;28;51076;-48
2022/03/08 06:50:08;;;;;;;;;28.00;27.50;;;;;18.10;28.40;101258.09;5061458;28;51083;-47
2022/03/08 06:52:33;;;;;;;;;23.00;21.75;;;;;18.15;28.21;101247.41;5068074;28;51774;-52
2022/03/08 06:54:59;;;;;;;;;23.50;22.00;;;;;18.23;28.84;101255.47;5064063;28;51259;-51
2022/03/08 06:57:24;;;;;;;;;21.25;19.00;;;;;18.29;28.88;101251.94;5070799;28;51286;-52
2022/03/08 06:59:50;;;;;;;;;30.50;22.75;;;;;18.34;29.25;101252.22;5068996;27;52148;-51
2022/03/08 07:02:15;;;;;;;;;18.25;17.50;;;;;18.44;29.47;101260.06;5062535;28;51731;-53
2022/03/08 07:04:41;;;;;;;;;24.25;20.00;;;;;18.50;29.73;101256.56;5062471;27;51062;-50
2022/03/08 07:07:06;;;;;;;;;18.50;17.25;;;;;18.57;30.17;101257.47;5072476;27;51220;-50
2022/03/08 07:09:31;;;;;;;;;17.25;15.00;;;;;18.64;29.87;101258.38;5075414;27;50948;-51
2022/03/08 07:11:57;;;;;;;;;15.75;14.50;;;;;18.71;30.53;101259.28;5069103;27;51786;-53
2022/03/08 07:14:22;;;;;;;;;19.75;16.75;;;;;18.79;30.39;101257.44;5062994;27;50971;-50
2022/03/08 07:16:48;;;;;;;;;21.25;20.75;;;;;18.87;30.50;101255.38;5062715;28;51097;-51
2022/03/08 07:19:14;;;;;;;;;14.50;14.50;;;;;18.95;30.86;101248.84;5072959;28;51236;-49
2022/03/08 07:21:41;;;;;;;;;14.25;14.00;;;;;19.04;30.64;101255.88;5066894;28;52305;-49
2022/03/08 07:24:07;;;;;;;;;15.25;12.75;;;;;19.11;31.15;101259.53;5063314;27;51426;-50
2022/03/08 07:26:32;;;;;;;;;16.00;15.25;;;;;19.18;31.00;101263.16;5066493;27;51183;-51
2022/03/08 07:28:58;;;;;;;;;17.25;16.50;;;;;19.25;30.98;101260.44;5064961;27;51219;-55
2022/03/08 07:31:23;;;;;;;;;16.00;15.25;;;;;19.32;31.50;101264.91;5071885;27;51167;-50
2022/03/08 07:33:48;;;;;;;;;16.50;15.00;;;;;19.40;31.63;101274.88;5068782;27;51204;-51
2022/03/08 07:36:14;;;;;;;;;17.00;13.75;;;;;19.44;31.47;101273.41;5067223;28;51166;-48
2022/03/08 07:38:39;;;;;;;;;15.50;14.75;;;;;19.52;31.59;101278.72;5063107;28;51837;-51
2022/03/08 07:41:05;;;;;;;;;17.25;14.75;;;;;19.58;31.48;101282.56;5065115;28;51756;-51
2022/03/08 07:43:32;;;;;;;;;18.00;16.00;;;;;19.64;31.85;101286.41;5058364;28;51520;-51
2022/03/08 07:45:58;;;;;;;;;19.75;16.00;;;;;19.70;31.83;101293.84;5056267;28;51373;-51
2022/03/08 07:48:23;;;;;;;;;18.00;15.00;;;;;19.75;31.28;101286.66;5056638;28;51427;-51
2022/03/08 07:50:48;;;;;;;;;22.00;18.75;;;;;19.81;31.45;101290.50;5058127;28;51783;-47
2022/03/08 07:53:14;;;;;;;;;20.00;17.75;;;;;19.86;31.16;101297.06;5058073;28;51092;-50
2022/03/08 07:55:39;;;;;;;;;20.25;15.75;;;;;19.88;31.57;101286.69;5057897;27;51040;-49
2022/03/08 07:58:05;;;;;;;;;25.75;20.25;;;;;19.88;31.49;101292.19;5057153;28;51180;-50
2022/03/08 08:00:32;;;;;;;;;20.75;17.75;;;;;19.87;31.62;101297.91;5061500;28;52738;-47
2022/03/08 08:02:59;;;;;;;;;24.25;23.75;;;;;19.84;31.61;101295.56;5065809;27;51730;-51
2022/03/08 08:05:24;;;;;;;;;31.25;23.00;;;;;19.76;31.27;101287.50;5055105;28;51189;-49
2022/03/08 08:07:50;;;;;;;;;22.50;22.50;;;;;19.69;31.33;101289.38;5055965;28;51040;-48
2022/03/08 08:10:15;;;;;;;;;27.00;24.50;;;;;19.63;31.17;101284.72;5068303;28;52740;-49
2022/03/08 08:12:41;;;;;;;;;24.00;22.25;;;;;19.56;31.46;101290.19;5054036;27;51077;-48
2022/03/08 08:15:07;;;;;;;;;26.50;21.50;;;;;19.50;30.96;101293.72;5056157;28;51099;-49
2022/03/08 08:17:32;;;;;;;;;25.50;24.50;;;;;19.44;31.57;101289.88;5055849;28;50953;-47
2022/03/08 08:19:58;;;;;;;;;22.50;22.50;;;;;19.40;31.61;101299.59;5056587;28;51069;-48
2022/03/08 08:22:23;;;;;;;;;26.00;22.00;;;;;19.35;31.25;101291.13;5055166;28;51075;-51
2022/03/08 08:24:49;;;;;;;;;27.50;25.25;;;;;19.30;31.22;101290.91;5056979;28;51002;-51
2022/03/08 08:27:14;;;;;;;;;25.00;22.25;;;;;19.24;31.07;101292.53;5056118;28;51340;-49
2022/03/08 08:29:40;;;;;;;;;29.50;26.75;;;;;19.21;31.59;101295.69;5064198;27;52596;-47
2022/03/08 08:32:06;;;;;;;;;31.50;27.25;;;;;19.18;31.57;101293.38;5055511;28;51104;-49
2022/03/08 08:34:32;;;;;;;;;27.50;25.25;;;;;19.15;31.38;101292.91;5055682;28;51085;-48
2022/03/08 08:36:57;;;;;;;;;31.25;27.00;;;;;19.12;31.42;101296.06;5055686;28;51647;-49
2022/03/08 08:39:23;;;;;;;;;29.50;26.75;;;;;19.10;31.39;101303.66;5056478;28;51006;-46
2022/03/08 08:41:48;;;;;;;;;32.50;25.75;;;;;19.06;31.44;101310.59;5055475;28;51096;-49
2022/03/08 08:44:13;;;;;;;;;30.25;26.50;;;;;19.03;31.63;101304.47;5055166;28;51086;-46
2022/03/08 08:46:39;;;;;;;;;32.50;27.75;;;;;19.00;31.35;101310.38;5055847;28;51183;-49
2022/03/08 08:49:05;;;;;;;;;26.00;25.00;;;;;18.98;31.38;101312.47;5056157;28;51862;-49
2022/03/08 08:51:31;;;;;;;;;24.00;23.25;;;;;18.96;31.50;101309.06;5055009;28;50998;-49
2022/03/08 08:53:57;;;;;;;;;27.25;24.75;;;;;18.96;31.59;101314.53;5056443;28;51018;-45
2022/03/08 08:56:23;;;;;;;;;29.00;26.25;;;;;18.96;31.44;101308.19;5055614;28;51305;-48
2022/03/08 08:58:48;;;;;;;;;31.50;27.25;;;;;18.96;31.29;101313.69;5055181;28;50906;-48
2022/03/08 09:01:14;;;;;;;;;30.00;24.75;;;;;18.96;30.94;101309.06;5056150;28;51214;-50
2022/03/08 09:03:39;;;;;;;;;31.25;27.00;;;;;18.96;31.65;101311.78;5062635;27;52148;-50
2022/03/08 09:06:05;;;;;;;;;26.50;25.50;;;;;18.98;31.20;101306.97;5075531;27;51277;-48
2022/03/08 09:08:30;;;;;;;;;26.75;22.00;;;;;19.00;31.26;101309.53;5075296;28;51804;-48
2022/03/08 09:10:56;;;;;;;;;29.50;23.75;;;;;19.00;31.21;101296.63;5059940;27;51038;-49
2022/03/08 09:13:23;;;;;;;;;37.00;29.00;;;;;19.01;31.26;101290.09;5060758;28;51035;-47
2022/03/08 09:15:49;;;;;;;;;25.50;24.25;;;;;19.02;31.32;101301.91;5075315;27;51183;-50
2022/03/08 09:18:15;;;;;;;;;23.00;18.75;;;;;19.01;31.24;101295.59;5075191;27;52137;-49
2022/03/08 09:20:41;;;;;;;;;33.50;30.25;;;;;19.01;31.24;101303.81;5063671;27;51070;-55
2022/03/08 09:23:07;;;;;;;;;29.75;27.00;;;;;19.01;31.21;101292.84;5054985;28;51139;-52
2022/03/08 09:25:33;;;;;;;;;30.00;25.00;;;;;19.02;31.32;101300.03;5070586;28;51359;-50
2022/03/08 09:27:59;;;;;;;;;32.75;28.00;;;;;19.03;31.25;101289.88;5054831;28;50969;-50
2022/03/08 09:30:24;;;;;;;;;29.00;26.75;;;;;19.04;31.21;101289.69;5084730;27;51135;-48
2022/03/08 09:32:51;;;;;;;;;29.75;28.50;;;;;19.07;31.32;101291.19;5069495;28;51641;-48
2022/03/08 09:35:16;;;;;;;;;28.00;26.75;;;;;19.10;30.91;101288.03;5062045;28;51415;-52
2022/03/08 09:37:42;;;;;;;;;32.00;30.25;;;;;19.14;31.22;101282.97;5061612;27;51942;-48
2022/03/08 09:40:09;;;;;;;;;33.50;26.75;;;;;19.14;31.22;101277.47;5068467;28;51190;-51
2022/03/08 09:42:35;;;;;;;;;39.75;33.50;;;;;19.18;30.67;101276.91;5061137;28;51327;-51
2022/03/08 09:45:00;;;;;;;;;33.75;29.50;;;;;19.27;30.80;101274.78;5061676;28;51334;-54
2022/03/08 09:47:26;;;;;;;;;39.00;35.25;;;;;19.39;30.74;101273.19;5061160;28;52017;-51
2022/03/08 09:49:53;;;;;;;;;32.00;27.25;;;;;19.54;30.72;101270.28;5066936;28;51566;-49
2022/03/08 09:52:19;;;;;;;;;27.25;24.50;;;;;19.71;30.78;101276.28;5046102;28;51414;-52
2022/03/08 09:54:45;;;;;;;;;29.00;25.75;;;;;19.86;31.03;101276.97;5059061;28;51405;-49
2022/03/08 09:57:13;;;;;;;;;26.50;23.75;;;;;20.01;30.93;101269.41;5062065;28;51302;-51
2022/03/08 09:59:39;;;;;;;;;30.75;25.75;;;;;20.17;30.81;101276.38;5068915;27;51089;-48
2022/03/08 10:02:05;;;;;;;;;25.50;24.00;;;;;20.30;30.78;101267.28;5062557;27;51163;-48
2022/03/08 10:04:30;;;;;;;;;21.00;19.25;;;;;20.43;30.86;101276.44;5060846;27;52513;-49
2022/03/08 10:06:56;;;;;;;;;22.00;21.25;;;;;20.57;31.23;101268.19;5065314;27;51139;-51
2022/03/08 10:09:23;;;;;;;;;23.25;19.25;;;;;20.68;31.14;101270.28;5062715;28;52209;-52
2022/03/08 10:11:53;;;;;;;;;23.50;23.25;;;;;20.80;31.09;101257.56;5060866;28;51228;-49
2022/03/08 10:14:39;;;;;;;;;19.25;19.25;;;;;20.91;30.46;101265.16;5061649;27;51472;-49
2022/03/08 10:17:06;;;;;;;;;19.25;18.25;;;;;21.01;30.93;101271.06;5062394;27;51194;-50
2022/03/08 10:19:43;;;;;;;;;23.00;18.50;;;;;21.11;30.49;101262.34;5057626;28;51189;-50
2022/03/08 10:22:24;;;;;;;;;20.50;19.00;;;;;21.22;30.45;101267.19;5063567;27;51229;-49
2022/03/08 10:24:49;;;;;;;;;17.00;17.00;;;;;21.33;31.03;101251.91;5057109;28;50991;-51
2022/03/08 10:27:16;;;;;;;;;16.50;15.75;;;;;21.42;30.98;101261.63;5066614;27;52042;-47
2022/03/08 10:29:42;;;;;;;;;22.50;20.25;;;;;21.51;31.01;101252.06;5062841;27;51666;-49
2022/03/08 10:32:07;;;;;;;;;18.50;15.50;;;;;21.59;30.89;101243.53;5063219;28;51140;-49
2022/03/08 10:34:33;;;;;;;;;25.50;17.25;;;;;21.67;31.11;101245.19;5060558;27;51449;-51
2022/03/08 10:37:00;;;;;;;;;20.25;16.25;;;;;21.75;30.71;101247.69;5066759;27;52194;-52
2022/03/08 10:39:25;;;;;;;;;14.25;14.00;;;;;21.82;30.99;101245.75;5063377;27;52195;-52
2022/03/08 10:41:56;;;;;;;;;17.75;14.75;;;;;21.90;30.42;101248.25;5065271;27;52548;-51
2022/03/08 10:44:34;;;;;;;;;15.00;14.50;;;;;21.98;30.74;101243.50;5064527;27;51080;-49
2022/03/08 10:47:12;;;;;;;;;20.25;16.25;;;;;22.05;30.60;101241.56;5069453;27;51111;-50
2022/03/08 10:49:57;;;;;;;;;23.00;19.00;;;;;22.13;30.49;101241.31;5064553;28;51570;-48
2022/03/08 10:52:36;;;;;;;;;15.25;13.25;;;;;22.19;30.94;101241.25;5070558;28;51112;-51
2022/03/08 10:55:18;;;;;;;;;15.50;14.25;;;;;22.26;30.98;101246.72;5067623;27;52831;-51
2022/03/08 10:57:50;;;;;;;;;17.50;14.75;;;;;22.32;30.35;101240.31;5066639;27;51867;-50
2022/03/08 11:00:20;;;;;;;;;19.00;14.75;;;;;22.38;30.33;101239.41;5067216;28;52256;-51
2022/03/08 11:02:53;;;;;;;;;16.50;15.50;;;;;22.42;30.95;101235.13;5061611;28;51078;-49
2022/03/08 11:05:20;;;;;;;;;16.75;15.25;;;;;22.41;30.53;101235.38;5068116;27;51244;-52